Brooklyn, Michigan
Current Conditions -  °F | °C
As of 3:08 PM on Thursday 27 Nov 2014 (Local Time) from KJXN Reporting Station
Light Snow Light Snow  
Wind Chill: 23°   Ceiling: 3200
Heat Index: 30°   Visibility: 5mi
Dew Point: 24°   Wind: 7mph
Humidity: 79%   Direction: 350°N
Pressure: 30.17"   Gusts: NA
Location:  42.11°N, 84.25°W
Report Text: KJXN 272008Z 35006KT 5SM -SN SCT019 SCT026 OVC032 M01/M04 A3017 RMK AO2 P0000 T10111044
Loading
Personal Weather Stations






























Interactive Weather Map New forecast layout! Learn more

10-Day Weather Forecast

Advertisements
Track Severe Weather on mobile